Time;durP1;ratioP1;P1;durP2;ratioP2;P2;SDS_P1;SDS_P2;PMS_P1;PMS_P2;Temp;Humidity;BMP_temperature;BMP_pressure;BME280_temperature;BME280_humidity;BME280_pressure;Samples;Min_cycle;Max_cycle;Signal;HPM_P1;HPM_P2
2021/12/20 00:00:22;;;;;;;32.45;19.48;;;;;;;4.83;100.00;101865.59;848679;23;887;-55
2021/12/20 00:00:42;;;;;;;32.65;19.63;;;;;;;4.85;100.00;101870.84;848339;23;4357;-54
2021/12/20 00:01:07;;;;;;;33.23;19.80;;;;;;;4.83;100.00;101868.19;843428;23;887;-53
2021/12/20 00:01:27;;;;;;;34.45;20.38;;;;;;;4.85;100.00;101868.25;842029;23;798;-54
2021/12/20 00:01:49;;;;;;;33.50;19.80;;;;;;;4.85;100.00;101865.66;845263;23;891;-53
2021/12/20 00:02:10;;;;;;;30.77;19.52;;;;;;;4.85;100.00;101865.66;844022;23;840;-55
2021/12/20 00:02:30;;;;;;;30.80;19.70;;;;;;;4.85;100.00;101870.84;845093;23;891;-55
2021/12/20 00:02:56;;;;;;;32.57;19.90;;;;;;;4.83;100.00;101868.19;845705;23;1058;-56
2021/12/20 00:03:17;;;;;;;32.55;19.75;;;;;;;4.84;100.00;101871.66;849008;23;799;-55
2021/12/20 00:03:37;;;;;;;32.57;19.70;;;;;;;4.84;100.00;101869.06;847669;23;5634;-55
2021/12/20 00:03:58;;;;;;;31.83;19.25;;;;;;;4.83;100.00;101870.78;848871;23;990;-54
2021/12/20 00:04:18;;;;;;;32.33;19.10;;;;;;;4.82;100.00;101866.41;849578;23;953;-54
2021/12/20 00:04:39;;;;;;;31.25;19.13;;;;;;;4.83;100.00;101867.28;848150;23;1322;-51
2021/12/20 00:04:59;;;;;;;32.30;19.70;;;;;;;4.83;100.00;101867.28;849928;23;883;-53
2021/12/20 00:05:21;;;;;;;30.73;19.67;;;;;;;4.84;100.00;101869.94;846767;23;827;-53
2021/12/20 00:05:41;;;;;;;30.67;19.65;;;;;;;4.83;100.00;101865.59;848246;23;979;-52
2021/12/20 00:06:02;;;;;;;29.33;19.67;;;;;;;4.84;100.00;101863.88;848602;23;847;-53
2021/12/20 00:06:23;;;;;;;28.92;19.10;;;;;;;4.83;100.00;101864.69;848841;23;933;-55
2021/12/20 00:06:43;;;;;;;30.35;19.00;;;;;;;4.85;100.00;101870.84;847973;23;4352;-51
2021/12/20 00:07:03;;;;;;;32.53;19.10;;;;;;;4.84;100.00;101869.06;847730;23;856;-52
2021/12/20 00:07:24;;;;;;;32.03;19.30;;;;;;;4.88;100.00;101865.78;844547;23;947;-56
2021/12/20 00:07:44;;;;;;;32.53;19.80;;;;;;;4.87;100.00;101869.19;844934;23;759;-55
2021/12/20 00:08:05;;;;;;;31.47;19.27;;;;;;;4.87;100.00;101866.59;844453;23;928;-51
2021/12/20 00:08:27;;;;;;;30.87;18.87;;;;;;;4.86;100.00;101864.81;845517;23;788;-53
2021/12/20 00:08:48;;;;;;;31.55;19.15;;;;;;;4.87;100.00;101874.34;845016;23;927;-53
2021/12/20 00:09:08;;;;;;;35.30;19.63;;;;;;;4.87;100.00;101871.75;845428;23;930;-53
2021/12/20 00:09:28;;;;;;;33.27;18.70;;;;;;;4.86;100.00;101868.31;843992;23;898;-51
2021/12/20 00:09:49;;;;;;;30.20;18.53;;;;;;;4.86;100.00;101872.59;844082;23;4299;-55
2021/12/20 00:10:09;;;;;;;30.63;18.90;;;;;;;4.84;100.00;101869.94;843732;23;938;-51
2021/12/20 00:10:29;;;;;;;29.52;18.52;;;;;;;4.85;100.00;101863.94;844436;23;900;-51
2021/12/20 00:10:50;;;;;;;29.90;19.33;;;;;;;4.85;100.00;101865.66;849609;23;922;-53
2021/12/20 00:11:10;;;;;;;30.50;19.38;;;;;;;4.85;100.00;101865.66;848878;23;927;-52
2021/12/20 00:11:31;;;;;;;32.73;19.20;;;;;;;4.84;100.00;101866.47;846115;23;1481;-56
2021/12/20 00:11:51;;;;;;;31.02;19.38;;;;;;;4.86;100.00;101870.00;844390;23;765;-54
2021/12/20 00:12:11;;;;;;;30.23;19.13;;;;;;;4.86;100.00;101872.59;841950;23;863;-54
2021/12/20 00:12:32;;;;;;;31.52;18.90;;;;;;;4.86;100.00;101870.91;844161;23;1125;-52
2021/12/20 00:12:53;;;;;;;30.77;19.00;;;;;;;4.85;100.00;101861.34;843050;23;5019;-55
2021/12/20 00:13:13;;;;;;;32.10;19.27;;;;;;;4.85;100.00;101870.84;843597;23;870;-55
2021/12/20 00:13:34;;;;;;;33.03;18.92;;;;;;;4.85;100.00;101871.72;841427;23;899;-56
2021/12/20 00:13:54;;;;;;;34.17;19.80;;;;;;;4.85;100.00;101882.06;840373;23;1164;-54
2021/12/20 00:14:15;;;;;;;30.23;19.30;;;;;;;4.85;100.00;101870.84;835610;23;770;-53
2021/12/20 00:14:35;;;;;;;31.37;19.67;;;;;;;4.85;100.00;101871.72;836280;23;732;-55
2021/12/20 00:14:56;;;;;;;30.50;19.17;;;;;;;4.85;100.00;101869.13;836507;23;702;-56
2021/12/20 00:15:18;;;;;;;30.43;18.90;;;;;;;4.85;100.00;101863.94;836709;23;1014;-52
2021/12/20 00:15:39;;;;;;;31.58;19.50;;;;;;;4.86;100.00;101864.81;841110;23;4294;-55
2021/12/20 00:15:59;;;;;;;30.67;19.30;;;;;;;4.86;100.00;101864.81;846366;23;931;-54
2021/12/20 00:16:20;;;;;;;30.00;18.80;;;;;;;4.85;100.00;101858.75;845675;23;792;-54
2021/12/20 00:16:40;;;;;;;31.05;19.25;;;;;;;4.84;100.00;101862.16;845675;23;702;-56
2021/12/20 00:17:00;;;;;;;30.53;19.33;;;;;;;4.85;100.00;101865.66;845192;23;892;-55
2021/12/20 00:17:21;;;;;;;31.80;19.08;;;;;;;4.85;100.00;101860.47;845415;23;764;-58
2021/12/20 00:17:42;;;;;;;33.27;18.87;;;;;;;4.85;100.00;101865.66;844289;23;761;-53
2021/12/20 00:18:02;;;;;;;30.42;19.00;;;;;;;4.85;100.00;101857.88;844482;23;898;-52
2021/12/20 00:18:23;;;;;;;30.92;19.70;;;;;;;4.85;100.00;101863.06;845972;23;908;-54
2021/12/20 00:18:44;;;;;;;31.83;19.40;;;;;;;4.85;100.00;101860.47;845267;23;4351;-53
2021/12/20 00:19:09;;;;;;;29.40;19.30;;;;;;;4.85;100.00;101870.84;845414;23;717;-54
2021/12/20 00:19:29;;;;;;;30.67;18.65;;;;;;;4.86;100.00;101872.59;843095;23;2185;-55
2021/12/20 00:19:49;;;;;;;31.03;18.07;;;;;;;4.84;100.00;101863.88;845444;23;1946;-51
2021/12/20 00:20:10;;;;;;;31.60;18.97;;;;;;;4.85;100.00;101865.66;843453;23;950;-55
2021/12/20 00:20:31;;;;;;;29.95;18.67;;;;;;;4.85;100.00;101865.66;845886;23;828;-53
2021/12/20 00:20:51;;;;;;;29.47;18.70;;;;;;;4.85;100.00;101863.06;845459;23;815;-55
2021/12/20 00:21:12;;;;;;;30.25;18.73;;;;;;;4.85;100.00;101865.66;845820;23;755;-55
2021/12/20 00:21:32;;;;;;;30.48;19.23;;;;;;;4.86;100.00;101862.22;845740;23;958;-53
2021/12/20 00:21:53;;;;;;;30.03;18.63;;;;;;;4.85;100.00;101857.88;844051;23;4247;-55
2021/12/20 00:22:13;;;;;;;28.95;18.65;;;;;;;4.85;100.00;101863.06;844378;23;871;-52
2021/12/20 00:22:33;;;;;;;28.07;18.50;;;;;;;4.85;100.00;101865.66;845233;23;899;-56
2021/12/20 00:22:54;;;;;;;31.23;18.63;;;;;;;4.84;100.00;101869.94;845538;23;1201;-52
2021/12/20 00:23:14;;;;;;;30.53;18.93;;;;;;;4.88;100.00;101860.59;845204;23;906;-54
2021/12/20 00:23:35;;;;;;;29.53;18.53;;;;;;;4.93;100.00;101859.06;847335;23;784;-51
2021/12/20 00:23:55;;;;;;;31.60;19.47;;;;;;;4.93;100.00;101864.25;848349;23;878;-51
2021/12/20 00:24:17;;;;;;;31.17;19.30;;;;;;;4.92;100.00;101865.94;849760;23;925;-51
2021/12/20 00:24:37;;;;;;;31.73;19.48;;;;;;;4.92;100.00;101862.47;846453;23;4533;-53
2021/12/20 00:24:57;;;;;;;31.05;19.40;;;;;;;4.90;100.00;101870.19;848489;23;752;-56
2021/12/20 00:25:18;;;;;;;32.63;19.87;;;;;;;4.90;100.00;101869.28;847929;23;844;-55
2021/12/20 00:25:39;;;;;;;31.23;19.30;;;;;;;4.88;100.00;101865.78;846125;23;729;-54
2021/12/20 00:25:59;;;;;;;33.10;19.73;;;;;;;4.87;100.00;101864.88;845802;23;851;-53
2021/12/20 00:26:20;;;;;;;32.65;19.88;;;;;;;4.87;100.00;101869.19;845527;23;764;-52
2021/12/20 00:26:40;;;;;;;33.90;20.30;;;;;;;4.86;100.00;101865.72;844714;23;654;-55
2021/12/20 00:27:04;;;;;;;33.13;20.37;;;;;;;4.86;100.00;101862.22;845331;23;898;-53
2021/12/20 00:27:25;;;;;;;34.17;19.50;;;;;;;4.84;100.00;101859.56;844767;23;903;-54
2021/12/20 00:27:46;;;;;;;32.90;20.10;;;;;;;4.84;100.00;101864.75;843313;23;4444;-54
2021/12/20 00:28:06;;;;;;;32.67;20.45;;;;;;;4.85;100.00;101865.66;843206;23;788;-55
2021/12/20 00:28:27;;;;;;;32.00;20.13;;;;;;;4.84;100.00;101853.53;844298;23;883;-56
2021/12/20 00:28:47;;;;;;;30.35;19.75;;;;;;;4.83;100.00;101857.84;845640;23;721;-52
2021/12/20 00:29:07;;;;;;;31.20;19.63;;;;;;;4.83;100.00;101857.84;847688;23;962;-51
2021/12/20 00:29:28;;;;;;;33.28;20.00;;;;;;;4.85;100.00;101855.28;847742;23;715;-55
2021/12/20 00:29:49;;;;;;;34.10;20.60;;;;;;;4.84;100.00;101861.28;849763;23;855;-52
2021/12/20 00:30:10;;;;;;;31.73;19.67;;;;;;;4.85;100.00;101860.47;848159;23;787;-51
2021/12/20 00:30:33;;;;;;;31.65;19.65;;;;;;;4.84;100.00;101862.16;848729;23;1002;-51
2021/12/20 00:30:53;;;;;;;32.97;20.27;;;;;;;4.83;100.00;101863.00;846453;23;4601;-53
2021/12/20 00:31:13;;;;;;;32.40;19.70;;;;;;;4.83;100.00;101862.09;845037;23;1017;-55
2021/12/20 00:31:34;;;;;;;30.53;19.57;;;;;;;4.84;100.00;101861.28;845492;23;780;-53
2021/12/20 00:31:54;;;;;;;32.78;19.67;;;;;;;4.84;100.00;101858.69;845988;23;860;-52
2021/12/20 00:32:16;;;;;;;34.27;19.83;;;;;;;4.84;100.00;101850.94;845314;23;728;-54
2021/12/20 00:32:38;;;;;;;31.77;19.95;;;;;;;4.85;100.00;101856.16;844219;23;748;-55
2021/12/20 00:32:58;;;;;;;32.55;19.40;;;;;;;4.84;100.00;101848.34;845465;23;918;-53
2021/12/20 00:33:19;;;;;;;31.57;19.80;;;;;;;4.85;100.00;101856.16;843770;23;966;-52
2021/12/20 00:33:39;;;;;;;29.45;18.85;;;;;;;4.86;100.00;101857.03;844161;23;4292;-53
2021/12/20 00:33:59;;;;;;;32.57;19.83;;;;;;;4.85;100.00;101852.69;845789;23;686;-52
2021/12/20 00:34:20;;;;;;;34.58;20.90;;;;;;;4.84;100.00;101851.81;845114;23;871;-56
2021/12/20 00:34:41;;;;;;;32.40;19.70;;;;;;;4.84;100.00;101848.34;845803;23;926;-51
2021/12/20 00:35:03;;;;;;;30.83;19.67;;;;;;;4.85;100.00;101856.16;844743;23;957;-55
2021/12/20 00:35:25;;;;;;;32.67;19.65;;;;;;;4.85;100.00;101850.13;845251;23;946;-54
2021/12/20 00:35:46;;;;;;;32.30;19.63;;;;;;;4.83;100.00;101847.47;845810;23;871;-53
2021/12/20 00:36:08;;;;;;;32.33;19.70;;;;;;;4.84;100.00;101846.63;845233;23;970;-52
2021/12/20 00:36:30;;;;;;;32.95;19.45;;;;;;;4.84;100.00;101849.22;843910;23;947;-52
2021/12/20 00:36:57;;;;;;;31.38;19.45;;;;;;;4.84;100.00;101849.22;844354;23;4577;-51
2021/12/20 00:40:37;;;;;;;32.47;19.20;;;;;;;4.83;100.00;101846.56;845218;23;811;-54
2021/12/20 00:40:58;;;;;;;31.13;18.98;;;;;;;4.82;100.00;101848.28;845437;23;799;-52
2021/12/20 00:41:19;;;;;;;30.85;20.15;;;;;;;4.83;100.00;101846.56;844730;23;752;-51
2021/12/20 00:41:40;;;;;;;31.73;19.98;;;;;;;4.82;100.00;101842.19;845026;23;914;-54
2021/12/20 00:42:00;;;;;;;32.55;19.67;;;;;;;4.81;100.00;101841.31;845307;23;773;-54
2021/12/20 00:42:21;;;;;;;32.60;19.27;;;;;;;4.83;100.00;101841.38;843905;23;899;-53
2021/12/20 00:42:41;;;;;;;31.63;19.42;;;;;;;4.83;100.00;101842.28;844178;23;4592;-53
2021/12/20 00:43:02;;;;;;;30.07;19.30;;;;;;;4.83;100.00;101842.28;845571;23;856;-55
2021/12/20 00:43:22;;;;;;;30.90;19.23;;;;;;;4.83;100.00;101846.56;844376;23;820;-51
2021/12/20 00:43:43;;;;;;;31.93;19.60;;;;;;;4.83;100.00;101841.38;845002;23;875;-54
2021/12/20 00:44:03;;;;;;;33.17;20.45;;;;;;;4.83;100.00;101844.88;844177;23;903;-51
2021/12/20 00:44:24;;;;;;;31.05;19.73;;;;;;;4.83;100.00;101841.38;843397;23;883;-55
2021/12/20 00:44:44;;;;;;;30.50;19.20;;;;;;;4.82;100.00;101840.50;845702;23;792;-54
2021/12/20 00:45:05;;;;;;;30.57;19.50;;;;;;;4.82;100.00;101845.69;846004;23;753;-53
2021/12/20 00:45:30;;;;;;;35.45;19.88;;;;;;;4.84;100.00;101845.75;843169;23;962;-52
2021/12/20 00:45:51;;;;;;;34.22;19.85;;;;;;;4.82;100.00;101839.59;842612;23;4208;-54
2021/12/20 00:46:11;;;;;;;31.15;19.90;;;;;;;4.83;100.00;101841.38;847788;23;923;-59
2021/12/20 00:46:32;;;;;;;32.22;19.20;;;;;;;4.85;100.00;101839.75;849675;23;800;-54
2021/12/20 00:46:53;;;;;;;30.65;18.60;;;;;;;4.85;100.00;101839.75;849294;23;887;-53
2021/12/20 00:47:13;;;;;;;31.58;19.25;;;;;;;4.82;100.00;101840.50;849157;23;1296;-51
2021/12/20 00:47:34;;;;;;;29.97;19.67;;;;;;;4.82;100.00;101844.78;848307;23;844;-55
2021/12/20 00:47:54;;;;;;;31.08;19.63;;;;;;;4.85;100.00;101835.44;848502;23;879;-51
2021/12/20 00:48:15;;;;;;;29.93;19.03;;;;;;;4.88;100.00;101837.25;845656;23;958;-52
2021/12/20 00:48:35;;;;;;;31.85;19.13;;;;;;;4.87;100.00;101838.06;843678;23;4281;-51
2021/12/20 00:48:56;;;;;;;30.20;18.48;;;;;;;4.85;100.00;101839.75;845323;23;1255;-52
2021/12/20 00:49:16;;;;;;;29.97;18.73;;;;;;;4.84;100.00;101837.97;845494;23;860;-52
2021/12/20 00:49:37;;;;;;;32.78;19.15;;;;;;;4.85;100.00;101847.53;845775;23;828;-55
2021/12/20 00:49:57;;;;;;;31.17;19.13;;;;;;;4.91;100.00;101845.16;844353;23;879;-55
2021/12/20 00:50:19;;;;;;;33.13;19.17;;;;;;;4.95;100.00;101847.03;844850;23;883;-52
2021/12/20 00:50:41;;;;;;;33.97;19.23;;;;;;;4.92;100.00;101847.78;844846;23;955;-56
2021/12/20 00:51:02;;;;;;;33.72;19.25;;;;;;;4.90;100.00;101854.63;849833;23;735;-53
2021/12/20 00:51:22;;;;;;;31.70;19.98;;;;;;;4.87;100.00;101849.31;845389;23;848;-53
2021/12/20 00:51:43;;;;;;;33.03;19.83;;;;;;;4.85;100.00;101850.13;843817;23;4278;-52
2021/12/20 00:52:03;;;;;;;33.47;19.93;;;;;;;4.84;100.00;101856.09;844312;23;823;-52
2021/12/20 00:52:25;;;;;;;33.23;18.93;;;;;;;4.81;100.00;101849.09;843964;23;721;-55
2021/12/20 00:52:46;;;;;;;32.42;19.38;;;;;;;4.80;100.00;101854.22;846166;23;820;-51
2021/12/20 00:53:08;;;;;;;31.40;19.45;;;;;;;4.78;100.00;101852.44;845570;23;1232;-54
2021/12/20 00:53:28;;;;;;;34.70;19.73;;;;;;;4.77;100.00;101850.69;844940;23;912;-51
2021/12/20 00:53:49;;;;;;;34.03;20.23;;;;;;;4.78;100.00;101852.44;844245;23;777;-55
2021/12/20 00:54:09;;;;;;;33.17;20.13;;;;;;;4.78;100.00;101855.03;845365;23;899;-55
2021/12/20 00:54:29;;;;;;;34.27;20.33;;;;;;;4.78;100.00;101849.00;843856;23;666;-55
2021/12/20 00:54:50;;;;;;;31.98;19.38;;;;;;;4.78;100.00;101849.00;843005;23;4299;-51
2021/12/20 00:55:15;;;;;;;33.57;19.97;;;;;;;4.76;100.00;101846.34;844780;23;812;-54
2021/12/20 00:55:36;;;;;;;34.33;19.92;;;;;;;4.75;100.00;101848.88;847426;23;892;-55
2021/12/20 00:55:56;;;;;;;35.42;20.05;;;;;;;4.74;100.00;101847.97;849613;23;841;-52
2021/12/20 00:56:17;;;;;;;33.77;19.80;;;;;;;4.75;100.00;101848.88;848821;23;914;-51
2021/12/20 00:56:37;;;;;;;31.48;19.70;;;;;;;4.75;100.00;101848.88;847638;23;879;-52
2021/12/20 00:56:58;;;;;;;32.10;20.10;;;;;;;4.75;100.00;101851.47;849836;23;899;-51
2021/12/20 00:57:18;;;;;;;34.10;20.20;;;;;;;4.74;100.00;101850.56;849313;23;875;-53
2021/12/20 00:57:38;;;;;;;34.70;20.70;;;;;;;4.73;100.00;101851.38;847763;23;4247;-51
2021/12/20 00:57:59;;;;;;;34.53;20.73;;;;;;;4.72;100.00;101849.63;848993;23;895;-54
2021/12/20 00:58:19;;;;;;;33.95;20.15;;;;;;;4.81;100.00;101853.41;848651;23;1058;-55
2021/12/20 00:58:40;;;;;;;34.38;19.73;;;;;;;4.87;100.00;101848.44;847981;23;883;-54
2021/12/20 00:59:00;;;;;;;31.67;19.13;;;;;;;4.85;100.00;101850.97;843235;23;764;-51
2021/12/20 00:59:21;;;;;;;31.87;18.97;;;;;;;4.84;100.00;101843.16;848220;23;875;-51
2021/12/20 00:59:41;;;;;;;30.40;19.07;;;;;;;4.84;100.00;101848.34;848800;23;907;-52
2021/12/20 01:00:05;;;;;;;32.30;19.43;;;;;;;4.83;100.00;101846.56;849262;23;1960;-53
2021/12/20 01:00:28;;;;;;;31.58;19.92;;;;;;;4.81;100.00;101848.22;843497;23;867;-57
2021/12/20 01:00:56;;;;;;;31.60;20.35;;;;;;;4.81;100.00;101843.03;842535;23;4288;-55
2021/12/20 01:01:16;;;;;;;33.33;19.90;;;;;;;4.78;100.00;101849.00;845904;23;819;-52
2021/12/20 01:01:37;;;;;;;33.83;19.73;;;;;;;4.77;100.00;101853.28;845089;23;916;-52
2021/12/20 01:01:57;;;;;;;35.00;19.80;;;;;;;4.76;100.00;101851.53;845645;23;780;-55
2021/12/20 01:02:18;;;;;;;36.60;20.10;;;;;;;4.74;100.00;101847.09;845802;23;812;-54
2021/12/20 01:02:38;;;;;;;34.50;19.77;;;;;;;4.75;100.00;101847.16;846850;23;1215;-54
2021/12/20 01:03:00;;;;;;;32.63;19.93;;;;;;;4.74;100.00;101847.97;849241;23;896;-52
2021/12/20 01:03:20;;;;;;;34.17;20.00;;;;;;;4.73;100.00;101845.34;845185;23;804;-51
2021/12/20 01:03:41;;;;;;;32.97;19.77;;;;;;;4.72;100.00;101844.47;844394;23;4247;-51
2021/12/20 01:04:02;;;;;;;32.73;19.93;;;;;;;4.73;100.00;101837.56;843739;23;906;-52
2021/12/20 01:04:23;;;;;;;33.75;20.08;;;;;;;4.72;100.00;101839.28;843398;23;1022;-55
2021/12/20 01:04:44;;;;;;;32.43;19.80;;;;;;;4.72;100.00;101833.19;844128;23;879;-52
2021/12/20 01:05:05;;;;;;;32.88;19.58;;;;;;;4.72;100.00;101839.28;843890;23;1404;-53
2021/12/20 01:05:27;;;;;;;34.67;19.55;;;;;;;4.72;100.00;101839.28;845102;23;800;-55
2021/12/20 01:05:48;;;;;;;33.10;19.80;;;;;;;4.72;100.00;101835.78;844654;23;781;-52
2021/12/20 01:06:09;;;;;;;33.13;19.65;;;;;;;4.75;100.00;101841.13;845423;23;927;-54
2021/12/20 01:06:29;;;;;;;31.37;19.07;;;;;;;4.76;100.00;101840.25;844856;23;776;-51
2021/12/20 01:06:49;;;;;;;31.85;18.38;;;;;;;4.77;100.00;101847.22;841573;23;4321;-52
2021/12/20 01:07:10;;;;;;;30.67;18.73;;;;;;;4.77;100.00;101840.31;843334;23;837;-54
2021/12/20 01:07:30;;;;;;;31.40;19.50;;;;;;;4.77;100.00;101847.22;843743;23;761;-54
2021/12/20 01:07:55;;;;;;;28.73;18.93;;;;;;;4.77;100.00;101850.69;845387;23;976;-54
2021/12/20 01:08:16;;;;;;;30.83;18.50;;;;;;;4.82;100.00;101855.16;846017;23;934;-54
2021/12/20 01:08:40;;;;;;;30.38;18.38;;;;;;;4.81;100.00;101848.22;845056;23;804;-53
2021/12/20 01:09:02;;;;;;;30.23;18.00;;;;;;;4.77;100.00;101845.50;845678;23;745;-53
2021/12/20 01:09:22;;;;;;;30.77;18.23;;;;;;;4.77;100.00;101844.63;845011;23;954;-55
2021/12/20 01:09:42;;;;;;;30.43;17.97;;;;;;;4.75;100.00;101847.16;843662;23;4403;-56
2021/12/20 01:10:07;;;;;;;29.67;17.88;;;;;;;4.76;100.00;101840.25;845492;23;879;-52
2021/12/20 01:10:29;;;;;;;30.48;18.13;;;;;;;4.76;100.00;101851.53;844760;23;950;-52
2021/12/20 01:10:52;;;;;;;28.15;17.58;;;;;;;4.76;100.00;101838.56;844954;23;973;-53
2021/12/20 01:11:19;;;;;;;29.95;17.92;;;;;;;4.76;100.00;101840.25;845762;23;892;-55
2021/12/20 01:11:42;;;;;;;28.85;17.15;;;;;;;4.75;100.00;101841.97;843764;23;1332;-57
2021/12/20 01:12:06;;;;;;;30.63;18.08;;;;;;;4.73;100.00;101841.03;843963;23;923;-56
2021/12/20 01:12:32;;;;;;;30.17;18.42;;;;;;;4.77;100.00;101842.03;844790;23;832;-52
2021/12/20 01:12:54;;;;;;;27.70;17.45;;;;;;;4.76;100.00;101838.56;842603;23;4308;-52
2021/12/20 01:13:16;;;;;;;31.50;18.00;;;;;;;4.76;100.00;101841.16;844748;23;808;-57
2021/12/20 01:13:40;;;;;;;29.48;17.75;;;;;;;4.74;100.00;101842.78;839914;23;859;-53
2021/12/20 01:14:01;;;;;;;30.00;17.52;;;;;;;4.73;100.00;101845.34;845053;23;816;-53
2021/12/20 01:14:27;;;;;;;28.73;17.52;;;;;;;4.73;100.00;101843.63;844056;23;879;-55
2021/12/20 01:14:47;;;;;;;26.42;17.13;;;;;;;4.73;100.00;101841.03;844366;23;1009;-52
2021/12/20 01:15:10;;;;;;;25.35;16.55;;;;;;;4.73;100.00;101840.16;844826;23;966;-55
2021/12/20 01:15:35;;;;;;;27.40;16.73;;;;;;;4.73;100.00;101838.44;844271;23;847;-52
2021/12/20 01:15:59;;;;;;;28.58;16.70;;;;;;;4.73;100.00;101841.03;843711;23;4938;-55
2021/12/20 01:16:31;;;;;;;30.83;16.67;;;;;;;4.73;100.00;101832.38;843709;23;1532;-55
2021/12/20 01:16:51;;;;;;;29.65;16.88;;;;;;;4.75;100.00;101841.13;845436;23;708;-53
2021/12/20 01:17:13;;;;;;;29.90;16.83;;;;;;;4.74;100.00;101842.78;843528;23;1184;-53
2021/12/20 01:17:33;;;;;;;29.58;16.85;;;;;;;4.73;100.00;101843.63;844161;23;1201;-61
2021/12/20 01:17:53;;;;;;;26.10;16.65;;;;;;;4.74;100.00;101839.34;838307;23;1432;-52
2021/12/20 01:18:14;;;;;;;27.80;17.50;;;;;;;4.74;100.00;101845.38;843089;23;776;-55
2021/12/20 01:18:34;;;;;;;28.30;17.48;;;;;;;4.72;100.00;101838.38;843515;23;4256;-53
2021/12/20 01:18:56;;;;;;;27.63;16.47;;;;;;;4.73;100.00;101848.78;847246;23;864;-52
2021/12/20 01:19:17;;;;;;;26.65;16.60;;;;;;;4.71;100.00;101850.47;841099;23;1539;-54
2021/12/20 01:19:38;;;;;;;27.43;17.13;;;;;;;4.71;100.00;101845.28;841689;23;915;-52
2021/12/20 01:19:59;;;;;;;25.88;16.60;;;;;;;4.72;100.00;101848.75;843259;23;1921;-53
2021/12/20 01:20:20;;;;;;;25.23;16.43;;;;;;;4.71;100.00;101853.06;844667;23;686;-51
2021/12/20 01:20:41;;;;;;;28.92;16.83;;;;;;;4.71;100.00;101845.28;844813;23;750;-52
2021/12/20 01:21:02;;;;;;;28.88;17.00;;;;;;;4.72;100.00;101846.16;845375;23;883;-55
2021/12/20 01:21:23;;;;;;;28.73;16.77;;;;;;;4.73;100.00;101842.75;844127;23;848;-51
2021/12/20 01:21:43;;;;;;;27.40;16.20;;;;;;;4.79;100.00;101848.19;844330;23;4210;-55
2021/12/20 01:22:05;;;;;;;28.60;16.38;;;;;;;4.78;100.00;101844.69;845826;23;679;-55
2021/12/20 01:22:26;;;;;;;25.65;15.75;;;;;;;4.77;100.00;101842.91;843910;23;987;-54
2021/12/20 01:22:47;;;;;;;26.00;15.67;;;;;;;4.78;100.00;101849.00;844509;23;878;-53
2021/12/20 01:23:09;;;;;;;27.23;15.85;;;;;;;4.77;100.00;101848.09;845901;23;958;-52
2021/12/20 01:23:30;;;;;;;26.70;15.68;;;;;;;4.77;100.00;101845.50;844624;23;806;-55
2021/12/20 01:23:50;;;;;;;27.92;15.95;;;;;;;4.77;100.00;101848.09;844971;23;919;-56
2021/12/20 01:24:10;;;;;;;24.70;15.63;;;;;;;4.77;100.00;101845.50;844333;23;911;-56
2021/12/20 01:24:31;;;;;;;24.70;15.70;;;;;;;4.77;100.00;101845.50;844880;23;761;-54
2021/12/20 01:24:52;;;;;;;24.60;15.43;;;;;;;4.77;100.00;101848.09;847878;23;4374;-54
2021/12/20 01:25:13;;;;;;;25.17;15.30;;;;;;;4.78;100.00;101849.00;848450;23;836;-54
2021/12/20 01:25:34;;;;;;;24.65;15.90;;;;;;;4.78;100.00;101849.88;841415;23;1171;-55
2021/12/20 01:25:54;;;;;;;26.80;16.23;;;;;;;4.78;100.00;101844.69;844636;23;852;-52
2021/12/20 01:26:15;;;;;;;25.93;15.60;;;;;;;4.77;100.00;101848.09;844738;23;950;-53
2021/12/20 01:26:35;;;;;;;24.40;15.37;;;;;;;4.77;100.00;101847.22;844713;23;751;-53
2021/12/20 01:26:56;;;;;;;25.30;15.70;;;;;;;4.77;100.00;101848.09;844854;23;949;-53
2021/12/20 01:27:16;;;;;;;22.90;15.53;;;;;;;4.77;100.00;101844.63;843846;23;898;-53
2021/12/20 01:27:37;;;;;;;24.85;15.60;;;;;;;4.77;100.00;101847.22;844048;23;4471;-51
2021/12/20 01:27:57;;;;;;;23.77;15.18;;;;;;;4.77;100.00;101845.50;844693;23;786;-52
2021/12/20 01:28:18;;;;;;;22.70;15.00;;;;;;;4.77;100.00;101847.22;844461;23;967;-54
2021/12/20 01:28:42;;;;;;;24.75;15.30;;;;;;;4.77;100.00;101845.50;843446;23;804;-54
2021/12/20 01:29:02;;;;;;;23.58;15.20;;;;;;;4.77;100.00;101842.91;845236;23;910;-52
2021/12/20 01:29:23;;;;;;;25.63;15.25;;;;;;;4.77;100.00;101844.63;844815;23;847;-51
2021/12/20 01:29:44;;;;;;;25.20;15.53;;;;;;;4.77;100.00;101842.91;844406;23;851;-55
2021/12/20 01:30:09;;;;;;;25.38;15.38;;;;;;;4.76;100.00;101846.34;844482;23;807;-55
2021/12/20 01:30:30;;;;;;;24.67;15.40;;;;;;;4.76;100.00;101840.25;843341;23;961;-55
2021/12/20 01:30:50;;;;;;;22.10;14.85;;;;;;;4.76;100.00;101848.94;843809;23;5212;-54
2021/12/20 01:31:11;;;;;;;22.35;14.80;;;;;;;4.75;100.00;101844.56;846160;23;741;-52
2021/12/20 01:31:31;;;;;;;23.60;14.83;;;;;;;4.76;100.00;101848.03;845304;23;907;-53
2021/12/20 01:31:51;;;;;;;24.48;15.25;;;;;;;4.76;100.00;101840.25;845204;23;839;-55
2021/12/20 01:32:12;;;;;;;25.37;15.43;;;;;;;4.77;100.00;101845.50;847406;23;2131;-52
2021/12/20 01:32:32;;;;;;;25.87;15.57;;;;;;;4.77;100.00;101848.09;848911;23;882;-52
2021/12/20 01:32:53;;;;;;;24.25;15.23;;;;;;;4.76;100.00;101846.34;847153;23;756;-52
2021/12/20 01:33:14;;;;;;;25.40;15.82;;;;;;;4.76;100.00;101846.34;848365;23;938;-55
2021/12/20 01:33:35;;;;;;;24.90;15.45;;;;;;;4.75;100.00;101844.56;841560;23;4275;-52
2021/12/20 01:33:56;;;;;;;25.75;15.95;;;;;;;4.75;100.00;101844.56;844329;23;1444;-54
2021/12/20 01:34:16;;;;;;;27.35;16.20;;;;;;;4.74;100.00;101850.56;845060;23;891;-55
2021/12/20 01:34:37;;;;;;;26.90;15.83;;;;;;;4.73;100.00;101851.38;844195;23;819;-55
2021/12/20 01:34:57;;;;;;;26.35;15.60;;;;;;;4.75;100.00;101852.34;845699;23;733;-55
2021/12/20 01:35:19;;;;;;;25.03;14.97;;;;;;;4.75;100.00;101848.88;845289;23;780;-54
2021/12/20 01:35:41;;;;;;;25.63;15.18;;;;;;;4.75;100.00;101852.34;844291;23;950;-55
2021/12/20 01:36:02;;;;;;;24.77;15.10;;;;;;;4.75;100.00;101843.69;847458;23;1445;-52
2021/12/20 01:36:22;;;;;;;25.63;15.60;;;;;;;4.75;100.00;101849.75;849429;23;807;-52
2021/12/20 01:36:43;;;;;;;25.37;15.40;;;;;;;4.75;100.00;101851.47;848990;23;4219;-52
2021/12/20 01:37:03;;;;;;;25.20;15.47;;;;;;;4.75;100.00;101852.34;849725;23;867;-52
2021/12/20 01:37:24;;;;;;;23.08;15.07;;;;;;;4.75;100.00;101847.16;844321;23;800;-54
2021/12/20 01:37:44;;;;;;;23.70;15.10;;;;;;;4.75;100.00;101854.06;845495;23;792;-54
2021/12/20 01:38:06;;;;;;;23.97;15.23;;;;;;;4.74;100.00;101850.56;844769;23;827;-54
2021/12/20 01:38:26;;;;;;;23.25;14.80;;;;;;;4.74;100.00;101847.97;845244;23;874;-52
2021/12/20 01:38:47;;;;;;;24.85;14.63;;;;;;;4.75;100.00;101851.47;845586;23;867;-53
2021/12/20 01:39:07;;;;;;;24.27;15.32;;;;;;;4.75;100.00;101854.94;845395;23;836;-54
2021/12/20 01:39:28;;;;;;;27.13;15.83;;;;;;;4.73;100.00;101851.38;844668;23;757;-55
2021/12/20 01:39:48;;;;;;;25.90;15.65;;;;;;;4.73;100.00;101853.97;843226;23;4283;-58
2021/12/20 01:40:13;;;;;;;25.17;14.67;;;;;;;4.74;100.00;101855.75;842508;23;1902;-52
2021/12/20 01:40:35;;;;;;;24.35;15.07;;;;;;;4.75;100.00;101854.06;843659;23;756;-54
2021/12/20 01:40:55;;;;;;;25.30;14.77;;;;;;;4.75;100.00;101854.94;844985;23;934;-51
2021/12/20 01:41:16;;;;;;;25.88;14.50;;;;;;;4.74;100.00;101858.34;846930;23;938;-54
2021/12/20 01:41:41;;;;;;;27.67;14.93;;;;;;;4.74;100.00;101853.16;845307;23;724;-51
2021/12/20 01:42:04;;;;;;;25.05;14.88;;;;;;;4.74;100.00;101857.47;844719;23;859;-55
2021/12/20 01:42:28;;;;;;;26.00;14.68;;;;;;;4.74;100.00;101860.94;845008;23;992;-53
2021/12/20 01:42:52;;;;;;;25.98;15.15;;;;;;;4.73;100.00;101859.16;843364;23;4433;-52